Time;durP1;ratioP1;P1;durP2;ratioP2;P2;SDS_P1;SDS_P2;PMS_P1;PMS_P2;Temp;Humidity;BMP_temperature;BMP_pressure;BME280_temperature;BME280_humidity;BME280_pressure;Samples;Min_cycle;Max_cycle;Signal;HPM_P1;HPM_P2
2023/01/23 00:01:29;;;;;;;6.03;5.22;;;5.80;99.90;;;;;;5112262;27;20201;-78
2023/01/23 00:03:56;;;;;;;10.40;5.53;;;5.80;99.90;;;;;;5103314;27;20236;-78
2023/01/23 00:06:24;;;;;;;10.70;6.50;;;5.80;99.90;;;;;;5099126;27;20228;-78
2023/01/23 00:08:51;;;;;;;9.40;5.68;;;5.80;99.90;;;;;;5106516;27;20197;-80
2023/01/23 00:11:21;;;;;;;7.70;5.72;;;5.80;99.90;;;;;;5113893;27;20234;-78
2023/01/23 00:13:48;;;;;;;7.10;5.00;;;5.80;99.90;;;;;;5110488;27;20634;-79
2023/01/23 00:16:18;;;;;;;10.85;5.57;;;5.80;99.90;;;;;;5104703;28;20226;-78
2023/01/23 00:18:46;;;;;;;6.93;5.10;;;5.70;99.90;;;;;;5112140;27;20218;-79
2023/01/23 00:21:14;;;;;;;8.27;4.93;;;5.70;99.90;;;;;;5102506;27;20208;-80
2023/01/23 00:23:43;;;;;;;9.65;5.90;;;5.70;99.90;;;;;;5105691;27;20216;-79
2023/01/23 00:26:14;;;;;;;7.30;5.97;;;5.70;99.90;;;;;;5120634;27;20305;-78
2023/01/23 00:28:43;;;;;;;7.28;4.95;;;5.70;99.90;;;;;;5110368;28;20250;-77
2023/01/23 00:31:12;;;;;;;7.57;5.53;;;5.70;99.90;;;;;;5110634;27;20210;-79
2023/01/23 00:33:39;;;;;;;5.85;5.20;;;5.70;99.90;;;;;;5112808;27;20228;-78
2023/01/23 00:36:09;;;;;;;6.93;5.57;;;5.80;99.90;;;;;;5108815;28;20263;-78
2023/01/23 00:38:35;;;;;;;7.45;5.13;;;5.70;99.90;;;;;;5113291;28;20218;-77
2023/01/23 00:41:03;;;;;;;5.95;5.35;;;5.70;99.90;;;;;;5104654;27;20204;-78
2023/01/23 00:43:30;;;;;;;6.63;4.97;;;5.70;99.90;;;;;;5108480;27;20216;-78
2023/01/23 00:46:00;;;;;;;9.00;4.50;;;5.70;99.90;;;;;;5107085;27;20245;-77
2023/01/23 00:48:27;;;;;;;5.50;4.70;;;5.70;99.90;;;;;;5111375;28;20188;-78
2023/01/23 00:50:54;;;;;;;6.75;5.28;;;5.70;99.90;;;;;;5113420;28;20208;-78
2023/01/23 00:53:21;;;;;;;6.30;4.70;;;5.70;99.90;;;;;;5112136;27;20291;-78
2023/01/23 00:55:49;;;;;;;7.68;5.45;;;5.60;99.90;;;;;;5111745;27;20311;-78
2023/01/23 00:58:17;;;;;;;9.07;5.13;;;5.60;99.90;;;;;;5111275;28;20247;-78
2023/01/23 01:00:44;;;;;;;7.78;4.65;;;5.50;99.90;;;;;;5113609;28;20282;-77
2023/01/23 01:03:13;;;;;;;9.00;5.43;;;5.60;99.90;;;;;;5101798;27;20293;-78
2023/01/23 01:05:40;;;;;;;8.98;5.40;;;5.50;99.90;;;;;;5108620;28;20644;-77
2023/01/23 01:08:08;;;;;;;17.98;5.25;;;5.50;99.90;;;;;;5105108;28;20279;-80
2023/01/23 01:10:34;;;;;;;6.68;4.75;;;5.50;99.90;;;;;;5109126;28;20283;-78
2023/01/23 01:13:03;;;;;;;8.77;5.15;;;5.50;99.90;;;;;;5100681;28;20230;-76
2023/01/23 01:15:30;;;;;;;5.50;4.25;;;5.50;99.90;;;;;;5113320;27;20219;-78
2023/01/23 01:17:57;;;;;;;8.50;5.28;;;5.50;99.90;;;;;;5108693;28;20234;-78
2023/01/23 01:20:27;;;;;;;7.05;5.68;;;5.60;99.90;;;;;;5111372;27;20573;-78
2023/01/23 01:22:58;;;;;;;10.32;5.28;;;5.50;99.90;;;;;;5108863;28;20285;-77
2023/01/23 01:25:25;;;;;;;9.35;5.50;;;5.50;99.90;;;;;;5103850;28;20224;-78
2023/01/23 01:27:52;;;;;;;7.35;6.60;;;5.50;99.90;;;;;;5106455;28;20199;-77
2023/01/23 01:30:19;;;;;;;8.90;7.10;;;5.50;99.90;;;;;;5098999;28;20288;-78
2023/01/23 01:32:47;;;;;;;10.90;6.25;;;5.50;99.90;;;;;;5106852;28;20259;-78
2023/01/23 01:35:14;;;;;;;10.57;6.70;;;5.50;99.90;;;;;;5100245;28;20258;-77
2023/01/23 01:37:42;;;;;;;8.30;5.10;;;5.60;99.90;;;;;;5113326;28;20774;-79
2023/01/23 01:40:13;;;;;;;10.35;6.40;;;5.60;99.90;;;;;;5113224;28;20235;-78
2023/01/23 01:42:43;;;;;;;13.18;5.40;;;5.60;99.90;;;;;;5114171;28;20232;-78
2023/01/23 01:45:43;;;;;;;8.48;4.88;;;5.70;99.90;;;;;;5110112;28;20674;-80
2023/01/23 01:48:10;;;;;;;7.22;5.00;;;5.70;99.90;;;;;;5109093;28;20230;-77
2023/01/23 01:50:37;;;;;;;7.25;5.68;;;5.60;99.90;;;;;;5106191;28;20210;-79
2023/01/23 01:53:05;;;;;;;6.68;5.25;;;5.60;99.90;;;;;;5106067;28;20338;-77
2023/01/23 01:55:34;;;;;;;9.05;5.55;;;5.60;99.90;;;;;;5116724;28;20224;-78
2023/01/23 01:58:01;;;;;;;5.70;4.95;;;5.50;99.90;;;;;;5118100;28;20228;-78
2023/01/23 02:00:28;;;;;;;8.15;5.15;;;5.50;99.90;;;;;;5123479;27;20257;-79
2023/01/23 02:02:58;;;;;;;11.98;6.65;;;5.40;99.90;;;;;;5115714;27;20649;-77
2023/01/23 02:05:27;;;;;;;11.45;6.22;;;5.40;99.90;;;;;;5110190;28;20223;-77
2023/01/23 02:08:00;;;;;;;11.60;6.15;;;5.40;99.90;;;;;;5116851;28;20295;-78
2023/01/23 02:10:29;;;;;;;6.95;5.55;;;5.40;99.90;;;;;;5114303;28;20200;-79
2023/01/23 02:13:21;;;;;;;8.40;5.65;;;5.20;99.90;;;;;;5117596;28;20301;-78
2023/01/23 02:15:48;;;;;;;8.43;5.57;;;5.10;99.90;;;;;;5111877;28;20221;-79
2023/01/23 02:18:16;;;;;;;10.48;6.22;;;5.00;99.90;;;;;;5110919;28;20266;-79
2023/01/23 02:20:43;;;;;;;10.55;6.70;;;4.90;99.90;;;;;;5119672;28;20234;-79
2023/01/23 02:23:53;;;;;;;10.43;6.80;;;4.80;99.90;;;;;;5130414;28;20201;-79
2023/01/23 02:26:27;;;;;;;6.75;6.05;;;4.80;99.90;;;;;;5110465;28;20733;-76
2023/01/23 02:28:54;;;;;;;6.50;5.90;;;4.80;99.90;;;;;;5119097;28;20196;-78
2023/01/23 02:31:43;;;;;;;7.00;6.00;;;4.80;99.90;;;;;;5106164;28;20195;-76
2023/01/23 02:34:12;;;;;;;8.70;6.28;;;4.80;99.90;;;;;;5117718;28;20218;-77
2023/01/23 02:36:49;;;;;;;6.95;6.10;;;4.80;99.90;;;;;;5111164;28;20262;-77
2023/01/23 02:39:17;;;;;;;7.43;5.70;;;4.80;99.90;;;;;;5109406;28;20225;-79
2023/01/23 02:41:53;;;;;;;15.93;7.55;;;4.80;99.90;;;;;;5109744;28;20255;-79
2023/01/23 02:44:25;;;;;;;11.88;7.18;;;4.80;99.90;;;;;;5112719;28;20197;-79
2023/01/23 02:46:52;;;;;;;11.20;6.45;;;4.80;99.90;;;;;;5108698;28;20656;-76
2023/01/23 02:49:20;;;;;;;8.77;6.03;;;4.80;99.90;;;;;;5127010;27;20213;-78
2023/01/23 02:51:47;;;;;;;7.07;5.07;;;4.80;99.90;;;;;;5110326;28;20588;-78
2023/01/23 02:54:14;;;;;;;7.13;5.43;;;4.80;99.90;;;;;;5106876;28;20287;-78
2023/01/23 02:56:42;;;;;;;8.15;5.45;;;4.80;99.90;;;;;;5115452;27;20719;-78
2023/01/23 03:01:56;;;;;;;6.35;5.70;;;4.90;99.90;;;;;;5108916;28;20623;-79
2023/01/23 03:04:23;;;;;;;10.82;5.97;;;4.90;99.90;;;;;;5109454;28;20806;-78
2023/01/23 03:06:50;;;;;;;7.88;5.40;;;5.00;99.90;;;;;;5110011;27;20211;-78
2023/01/23 03:09:19;;;;;;;6.95;4.78;;;5.00;99.90;;;;;;5123251;27;20197;-78
2023/01/23 03:11:47;;;;;;;8.18;5.68;;;5.10;99.90;;;;;;5104850;28;20245;-77
2023/01/23 03:14:17;;;;;;;5.88;5.28;;;5.00;99.90;;;;;;5116408;28;20204;-79
2023/01/23 03:16:49;;;;;;;8.18;5.50;;;5.10;99.90;;;;;;5109043;28;20306;-77
2023/01/23 03:19:17;;;;;;;11.00;5.97;;;5.10;99.90;;;;;;5110983;28;20277;-79
2023/01/23 03:21:46;;;;;;;10.27;5.28;;;5.20;99.90;;;;;;5108633;27;20193;-77
2023/01/23 03:24:14;;;;;;;5.80;5.20;;;5.20;99.90;;;;;;5122486;27;20237;-81
2023/01/23 03:26:43;;;;;;;7.68;5.53;;;5.20;99.90;;;;;;5116195;28;20223;-78
2023/01/23 03:32:03;;;;;;;7.13;5.00;;;5.30;99.90;;;;;;5106043;28;20264;-78
2023/01/23 03:34:30;;;;;;;8.57;5.13;;;5.30;99.90;;;;;;5121516;27;20285;-78
2023/01/23 03:36:59;;;;;;;6.25;4.85;;;5.30;99.90;;;;;;5118365;27;20202;-78
2023/01/23 03:42:10;;;;;;;7.03;5.65;;;5.30;99.90;;;;;;5116979;27;20260;-77
2023/01/23 03:44:39;;;;;;;5.80;4.90;;;5.30;99.90;;;;;;5106048;28;20207;-78
2023/01/23 03:47:06;;;;;;;4.78;4.25;;;5.40;99.90;;;;;;5113646;28;20293;-78
2023/01/23 03:49:33;;;;;;;6.00;4.60;;;5.40;99.90;;;;;;5106635;27;20634;-78
2023/01/23 03:52:00;;;;;;;8.70;4.63;;;5.40;99.90;;;;;;5112036;27;20279;-78
2023/01/23 03:54:28;;;;;;;8.32;5.90;;;5.50;99.90;;;;;;5108021;28;20211;-79
2023/01/23 03:56:55;;;;;;;7.97;5.25;;;5.40;99.90;;;;;;5115397;27;20653;-78
2023/01/23 03:59:22;;;;;;;6.45;5.43;;;5.30;99.90;;;;;;5114487;27;20301;-78
2023/01/23 04:01:51;;;;;;;7.35;5.65;;;5.20;99.90;;;;;;5117085;28;20259;-78
2023/01/23 04:04:18;;;;;;;8.70;5.60;;;5.20;99.90;;;;;;5108093;28;20202;-78
2023/01/23 04:06:45;;;;;;;6.10;4.88;;;5.30;99.90;;;;;;5117447;27;20219;-77
2023/01/23 04:09:12;;;;;;;7.70;6.88;;;5.10;99.90;;;;;;5104840;27;20190;-78
2023/01/23 04:11:39;;;;;;;8.50;6.45;;;5.10;99.90;;;;;;5111029;27;20191;-77
2023/01/23 04:14:06;;;;;;;7.22;5.88;;;5.10;99.90;;;;;;5114794;27;20571;-78
2023/01/23 04:16:33;;;;;;;7.38;5.90;;;5.00;99.90;;;;;;5111028;27;20221;-78
2023/01/23 04:19:02;;;;;;;8.70;5.50;;;5.00;99.90;;;;;;5119859;27;20268;-77
2023/01/23 04:21:29;;;;;;;6.60;5.70;;;5.00;99.90;;;;;;5109516;28;20281;-79
2023/01/23 04:23:56;;;;;;;13.80;5.95;;;5.00;99.90;;;;;;5112622;28;20222;-78
2023/01/23 04:26:24;;;;;;;6.30;5.65;;;5.10;99.90;;;;;;5113204;28;20226;-78
2023/01/23 04:28:50;;;;;;;7.43;5.72;;;5.00;99.90;;;;;;5112380;28;20290;-78
2023/01/23 04:31:17;;;;;;;6.72;5.72;;;4.90;99.90;;;;;;5102769;27;20282;-78
2023/01/23 04:33:44;;;;;;;8.18;5.90;;;5.00;99.90;;;;;;5107194;27;20674;-77
2023/01/23 04:36:13;;;;;;;8.63;5.55;;;5.00;99.90;;;;;;5101777;27;20226;-78
2023/01/23 04:38:40;;;;;;;8.00;6.22;;;5.00;99.90;;;;;;5104846;27;20228;-77
2023/01/23 04:41:07;;;;;;;7.60;5.65;;;5.00;99.90;;;;;;5104295;27;20207;-76
2023/01/23 04:43:34;;;;;;;7.20;5.85;;;5.00;99.90;;;;;;5095904;28;20327;-78
2023/01/23 04:46:01;;;;;;;10.35;7.25;;;5.00;99.90;;;;;;5105593;27;20628;-78
2023/01/23 04:48:28;;;;;;;12.70;6.70;;;5.00;99.90;;;;;;5105805;27;20203;-78
2023/01/23 04:50:56;;;;;;;7.03;5.38;;;5.00;99.90;;;;;;5113431;28;20286;-78
2023/01/23 04:53:24;;;;;;;6.30;5.70;;;5.10;99.90;;;;;;5103370;27;20287;-78
2023/01/23 04:55:52;;;;;;;9.25;5.75;;;5.10;99.90;;;;;;5098376;28;20313;-77
2023/01/23 04:58:20;;;;;;;7.80;5.50;;;5.20;99.90;;;;;;5109768;28;20194;-77
2023/01/23 05:00:47;;;;;;;11.15;6.53;;;5.10;99.90;;;;;;5106825;28;20654;-79
2023/01/23 05:03:15;;;;;;;10.00;6.10;;;5.10;99.90;;;;;;5115778;28;20202;-78
2023/01/23 05:05:43;;;;;;;9.65;7.40;;;5.20;99.90;;;;;;5104471;27;20223;-79
2023/01/23 05:08:10;;;;;;;9.20;6.47;;;5.20;99.90;;;;;;5106743;27;20203;-78
2023/01/23 05:10:39;;;;;;;7.32;6.63;;;5.10;99.90;;;;;;5113830;27;20290;-78
2023/01/23 05:13:08;;;;;;;7.15;6.40;;;5.10;99.90;;;;;;5112122;27;20233;-78
2023/01/23 05:15:35;;;;;;;7.72;6.50;;;5.10;99.90;;;;;;5110503;27;20222;-78
2023/01/23 05:18:02;;;;;;;10.63;7.10;;;5.20;99.90;;;;;;5106808;28;20202;-78
2023/01/23 05:20:29;;;;;;;8.07;7.00;;;5.30;99.90;;;;;;5103931;27;20297;-79
2023/01/23 05:22:56;;;;;;;8.88;6.60;;;5.20;99.90;;;;;;5105422;27;20672;-78
2023/01/23 05:25:26;;;;;;;13.70;8.13;;;5.30;99.90;;;;;;5101628;27;20224;-77
2023/01/23 05:27:54;;;;;;;8.10;5.82;;;5.20;99.90;;;;;;5101796;28;20195;-78
2023/01/23 05:30:22;;;;;;;9.23;6.75;;;5.20;99.90;;;;;;5104120;27;20205;-79
2023/01/23 05:32:49;;;;;;;5.78;5.28;;;5.30;99.90;;;;;;5103412;28;20238;-78
2023/01/23 05:35:17;;;;;;;9.15;7.03;;;5.30;99.90;;;;;;5106950;27;20282;-77
2023/01/23 05:37:47;;;;;;;9.52;6.60;;;5.30;99.90;;;;;;5107483;28;20195;-79
2023/01/23 05:40:14;;;;;;;8.70;7.03;;;5.30;99.90;;;;;;5103709;28;20309;-78
2023/01/23 05:42:41;;;;;;;9.07;6.65;;;5.30;99.90;;;;;;5109604;27;20285;-78
2023/01/23 05:45:10;;;;;;;7.97;6.82;;;5.20;99.90;;;;;;5116988;27;20252;-77
2023/01/23 05:47:37;;;;;;;10.00;6.28;;;5.20;99.90;;;;;;5100651;28;20703;-78
2023/01/23 05:50:06;;;;;;;8.63;6.40;;;5.10;99.90;;;;;;5110466;27;20549;-78
2023/01/23 05:52:34;;;;;;;9.88;6.30;;;5.20;99.90;;;;;;5103815;28;20205;-78
2023/01/23 05:55:01;;;;;;;17.17;6.63;;;5.20;99.90;;;;;;5101725;28;20322;-78
2023/01/23 05:57:28;;;;;;;10.57;7.07;;;5.30;99.90;;;;;;5101312;28;20255;-76
2023/01/23 05:59:55;;;;;;;6.28;5.68;;;5.30;99.90;;;;;;5099992;28;20238;-79
2023/01/23 06:02:23;;;;;;;8.25;6.38;;;5.30;99.90;;;;;;5113456;27;20224;-79
2023/01/23 06:04:50;;;;;;;9.77;6.90;;;5.30;99.90;;;;;;5112766;27;20708;-77
2023/01/23 06:07:20;;;;;;;7.78;6.55;;;5.30;99.90;;;;;;5103507;28;20226;-77
2023/01/23 06:09:47;;;;;;;8.35;6.90;;;5.30;99.90;;;;;;5105587;28;20211;-78
2023/01/23 06:12:14;;;;;;;8.65;7.35;;;5.30;99.90;;;;;;5098735;28;20190;-79
2023/01/23 06:14:41;;;;;;;8.50;6.50;;;5.30;99.90;;;;;;5099257;28;20264;-80
2023/01/23 06:17:08;;;;;;;9.93;7.18;;;5.30;99.90;;;;;;5113204;28;20285;-77
2023/01/23 06:19:36;;;;;;;15.57;6.95;;;5.30;99.90;;;;;;5111617;28;20222;-78
2023/01/23 06:22:04;;;;;;;10.68;7.20;;;5.20;99.90;;;;;;5106916;28;20298;-78
2023/01/23 06:24:31;;;;;;;12.70;8.32;;;5.10;99.90;;;;;;5106454;28;20241;-80
2023/01/23 06:26:58;;;;;;;11.23;6.65;;;5.10;99.90;;;;;;5105715;28;20584;-79
2023/01/23 06:29:25;;;;;;;14.23;9.43;;;5.20;99.90;;;;;;5117961;27;20194;-78
2023/01/23 06:31:52;;;;;;;8.70;6.53;;;5.20;99.90;;;;;;5133174;27;20204;-76
2023/01/23 06:34:19;;;;;;;9.13;6.82;;;5.30;99.90;;;;;;5123548;27;20198;-78
2023/01/23 06:36:47;;;;;;;9.00;7.35;;;5.20;99.90;;;;;;5117150;28;20256;-78
2023/01/23 06:39:15;;;;;;;8.93;7.28;;;5.40;99.90;;;;;;5113360;28;20295;-80
2023/01/23 06:41:42;;;;;;;12.73;7.80;;;5.30;99.90;;;;;;5115017;27;20668;-77
2023/01/23 06:44:09;;;;;;;9.52;7.18;;;5.20;99.90;;;;;;5117764;27;20200;-78
2023/01/23 06:46:36;;;;;;;9.65;8.70;;;5.10;99.90;;;;;;5117148;28;20221;-78
2023/01/23 06:49:15;;;;;;;12.55;8.70;;;5.10;99.90;;;;;;5119108;27;20285;-78
2023/01/23 06:51:42;;;;;;;15.43;8.52;;;5.10;99.90;;;;;;5115903;28;20284;-77
2023/01/23 06:54:12;;;;;;;10.15;6.95;;;5.00;99.90;;;;;;5115016;28;20208;-78
2023/01/23 06:56:39;;;;;;;11.50;8.50;;;5.00;99.90;;;;;;5104229;28;20305;-76
2023/01/23 06:59:06;;;;;;;13.52;8.05;;;5.00;99.90;;;;;;5105005;27;20702;-77
2023/01/23 07:01:33;;;;;;;12.93;10.60;;;5.00;99.90;;;;;;5106381;28;20194;-78
2023/01/23 07:04:01;;;;;;;11.18;8.35;;;4.90;99.90;;;;;;5113082;28;20252;-80
2023/01/23 07:07:06;;;;;;;15.55;10.25;;;4.80;99.90;;;;;;5108336;28;20706;-78
2023/01/23 07:09:34;;;;;;;18.85;11.05;;;4.80;99.90;;;;;;5115315;28;20189;-76
2023/01/23 07:12:01;;;;;;;13.52;9.57;;;4.70;99.90;;;;;;5104573;28;20635;-79
2023/01/23 07:14:28;;;;;;;13.20;10.65;;;4.80;99.90;;;;;;5121167;27;20219;-75
2023/01/23 07:16:55;;;;;;;15.18;11.05;;;4.80;99.90;;;;;;5110511;28;20234;-77
2023/01/23 07:19:22;;;;;;;11.00;8.07;;;4.80;99.90;;;;;;5105462;28;20221;-77
2023/01/23 07:21:51;;;;;;;13.65;8.98;;;4.70;99.90;;;;;;5112766;28;20229;-80
2023/01/23 07:24:18;;;;;;;19.98;11.02;;;4.80;99.90;;;;;;5105887;28;20216;-79
2023/01/23 07:26:46;;;;;;;17.73;10.75;;;4.80;99.90;;;;;;5120696;27;20244;-81
2023/01/23 07:29:15;;;;;;;11.10;9.25;;;4.70;99.90;;;;;;5125293;28;20206;-82
2023/01/23 07:31:42;;;;;;;15.50;10.70;;;4.70;99.90;;;;;;5126218;28;20194;-80
2023/01/23 07:34:10;;;;;;;13.13;10.25;;;4.80;99.90;;;;;;5103161;28;20222;-81
2023/01/23 07:36:37;;;;;;;12.55;9.90;;;4.90;99.90;;;;;;5115694;27;20248;-81
2023/01/23 07:39:04;;;;;;;15.02;11.15;;;4.70;99.90;;;;;;5116837;28;20221;-81
2023/01/23 07:41:31;;;;;;;15.23;11.80;;;4.70;99.90;;;;;;5111799;27;20221;-81
2023/01/23 07:43:59;;;;;;;18.45;11.20;;;4.70;99.90;;;;;;5106271;28;20278;-80
2023/01/23 07:46:26;;;;;;;19.02;11.63;;;4.70;99.90;;;;;;5108203;28;20253;-83
2023/01/23 07:48:55;;;;;;;16.00;11.07;;;4.80;99.90;;;;;;5112813;28;20230;-82
2023/01/23 07:51:22;;;;;;;17.65;12.20;;;4.90;99.90;;;;;;5107126;28;20194;-82
2023/01/23 07:53:49;;;;;;;14.73;11.35;;;4.80;99.90;;;;;;5106709;28;20295;-79
2023/01/23 07:56:15;;;;;;;13.90;10.60;;;4.80;99.90;;;;;;5106637;28;20308;-82
2023/01/23 07:58:42;;;;;;;15.07;10.82;;;4.90;99.90;;;;;;5106274;28;20195;-81
2023/01/23 08:01:12;;;;;;;14.38;11.05;;;4.80;99.90;;;;;;5106171;28;20243;-82
2023/01/23 08:03:40;;;;;;;22.25;11.93;;;4.80;99.90;;;;;;5112247;28;20713;-80
2023/01/23 08:06:08;;;;;;;17.75;10.57;;;4.80;99.90;;;;;;5114055;28;20301;-79
2023/01/23 08:08:36;;;;;;;17.08;12.43;;;4.80;99.90;;;;;;5115617;27;20289;-80
2023/01/23 08:11:04;;;;;;;16.50;11.70;;;4.70;99.90;;;;;;5109677;27;20258;-78
2023/01/23 08:13:31;;;;;;;16.58;10.80;;;4.80;99.90;;;;;;5109919;28;20558;-80
2023/01/23 08:15:58;;;;;;;19.77;12.45;;;4.80;99.90;;;;;;5109452;27;20266;-80
2023/01/23 08:18:30;;;;;;;16.50;12.02;;;4.80;99.90;;;;;;5110966;28;20298;-80
2023/01/23 08:20:58;;;;;;;13.77;10.30;;;4.90;99.90;;;;;;5107302;27;20245;-80
2023/01/23 08:23:27;;;;;;;14.90;11.75;;;4.80;99.90;;;;;;5105856;28;20233;-79
2023/01/23 08:25:54;;;;;;;15.95;12.68;;;4.80;99.90;;;;;;5116078;27;20218;-81
2023/01/23 08:28:23;;;;;;;16.90;12.90;;;4.80;99.90;;;;;;5107979;28;20288;-80
2023/01/23 08:30:50;;;;;;;21.40;12.20;;;4.90;99.90;;;;;;5104318;28;20252;-79
2023/01/23 08:33:17;;;;;;;15.05;11.13;;;4.90;99.90;;;;;;5111942;28;20593;-80
2023/01/23 08:35:51;;;;;;;11.80;10.30;;;4.90;99.90;;;;;;5121524;27;20245;-80
2023/01/23 08:38:18;;;;;;;17.27;11.88;;;5.00;99.90;;;;;;5107535;28;20343;-80
2023/01/23 08:40:47;;;;;;;19.30;10.68;;;5.00;99.90;;;;;;5112017;28;20673;-80
2023/01/23 08:43:15;;;;;;;15.95;12.40;;;5.10;99.90;;;;;;5112491;28;20198;-81
2023/01/23 08:45:42;;;;;;;17.40;11.95;;;5.10;99.90;;;;;;5107383;28;20239;-83
2023/01/23 08:48:09;;;;;;;15.50;11.52;;;5.00;99.90;;;;;;5115008;27;20316;-81
2023/01/23 08:50:36;;;;;;;15.52;12.02;;;5.00;99.90;;;;;;5105566;28;20203;-80
2023/01/23 08:53:04;;;;;;;16.73;12.57;;;5.10;99.90;;;;;;5111853;28;20195;-79
2023/01/23 08:55:34;;;;;;;17.83;12.85;;;4.90;99.90;;;;;;5107796;28;20305;-81
2023/01/23 08:58:01;;;;;;;14.98;11.90;;;4.90;99.90;;;;;;5102301;28;20202;-82
2023/01/23 09:00:29;;;;;;;17.80;13.20;;;5.00;99.90;;;;;;5106779;28;20339;-81
2023/01/23 09:02:56;;;;;;;17.80;11.27;;;5.10;99.90;;;;;;5116552;27;20348;-82
2023/01/23 09:05:23;;;;;;;16.45;11.77;;;5.20;99.90;;;;;;5112720;27;20262;-80
2023/01/23 09:07:50;;;;;;;18.65;13.30;;;5.20;99.90;;;;;;5120424;27;20242;-80
2023/01/23 09:10:19;;;;;;;19.30;14.27;;;5.20;99.90;;;;;;5114880;28;20213;-81
2023/01/23 09:12:46;;;;;;;22.60;12.65;;;5.30;99.90;;;;;;5126999;27;20210;-83
2023/01/23 09:15:13;;;;;;;20.95;12.68;;;5.40;99.90;;;;;;5127070;27;20434;-82
2023/01/23 09:17:40;;;;;;;23.73;13.00;;;5.50;99.90;;;;;;5112816;27;20260;-80
2023/01/23 09:20:09;;;;;;;17.30;12.15;;;5.50;99.90;;;;;;5121607;27;20211;-82
2023/01/23 09:22:36;;;;;;;15.88;12.13;;;5.60;99.90;;;;;;5116575;28;20228;-81
2023/01/23 09:25:06;;;;;;;16.75;12.85;;;5.50;99.90;;;;;;5113271;27;20238;-83
2023/01/23 09:27:34;;;;;;;16.40;12.63;;;5.40;99.90;;;;;;5114450;28;20285;-83
2023/01/23 09:30:01;;;;;;;19.55;12.27;;;5.30;99.90;;;;;;5111396;27;20239;-81
2023/01/23 09:32:28;;;;;;;21.23;13.52;;;5.30;99.90;;;;;;5102125;28;20244;-83
2023/01/23 09:34:55;;;;;;;15.30;12.05;;;5.40;99.90;;;;;;5111345;28;20649;-81
2023/01/23 09:37:22;;;;;;;18.60;12.90;;;5.60;99.90;;;;;;5115998;28;20291;-81
2023/01/23 09:39:50;;;;;;;19.20;13.68;;;5.60;99.90;;;;;;5117173;28;20208;-82
2023/01/23 09:42:20;;;;;;;22.25;16.10;;;5.70;99.90;;;;;;5110759;27;20240;-81
2023/01/23 09:44:53;;;;;;;14.40;11.50;;;5.70;99.90;;;;;;5115263;28;20304;-82
2023/01/23 09:47:26;;;;;;;15.82;10.68;;;5.70;99.90;;;;;;5117811;27;20298;-82
2023/01/23 09:49:59;;;;;;;17.88;11.27;;;5.70;99.90;;;;;;5106479;28;20256;-82
2023/01/23 09:52:30;;;;;;;14.77;11.80;;;5.80;99.90;;;;;;5101315;28;20196;-82
2023/01/23 09:55:03;;;;;;;18.08;11.65;;;5.80;99.90;;;;;;5108909;27;20308;-81
2023/01/23 09:57:35;;;;;;;19.25;12.73;;;5.90;99.90;;;;;;5101820;28;20205;-81
2023/01/23 10:00:13;;;;;;;14.95;11.48;;;6.00;99.90;;;;;;5107271;28;20268;-83
2023/01/23 10:02:43;;;;;;;20.52;13.55;;;5.90;99.90;;;;;;5116557;28;20212;-82
2023/01/23 10:05:14;;;;;;;15.90;10.98;;;5.90;99.90;;;;;;5112719;28;20232;-82
2023/01/23 10:08:00;;;;;;;17.98;12.85;;;6.00;99.90;;;;;;5107425;28;20234;-82
2023/01/23 10:10:59;;;;;;;16.23;11.73;;;5.90;99.90;;;;;;5112485;28;20277;-81
2023/01/23 10:13:54;;;;;;;19.27;12.57;;;5.70;99.90;;;;;;5110478;28;20204;-82
2023/01/23 10:16:42;;;;;;;19.05;12.32;;;5.60;99.90;;;;;;5100731;28;20263;-83
2023/01/23 10:19:21;;;;;;;19.70;12.68;;;5.70;99.90;;;;;;5107467;28;20322;-82
2023/01/23 10:21:55;;;;;;;16.63;11.25;;;5.70;99.90;;;;;;5108418;28;20333;-82
2023/01/23 10:24:44;;;;;;;17.98;12.65;;;5.70;99.90;;;;;;5110877;28;20208;-81
2023/01/23 10:27:19;;;;;;;14.05;12.10;;;5.60;99.90;;;;;;5130335;28;20211;-84
2023/01/23 10:29:49;;;;;;;15.75;12.13;;;5.70;99.90;;;;;;5125327;28;20231;-84
2023/01/23 10:32:25;;;;;;;17.10;11.13;;;5.80;99.90;;;;;;5113535;28;20621;-83
2023/01/23 10:34:58;;;;;;;25.40;13.23;;;5.90;99.90;;;;;;5105649;28;20310;-83
2023/01/23 10:37:42;;;;;;;19.05;12.20;;;5.90;99.90;;;;;;5106655;28;20342;-82
2023/01/23 10:40:14;;;;;;;21.23;12.88;;;6.00;99.90;;;;;;5112678;28;20243;-84
2023/01/23 10:42:45;;;;;;;20.08;12.25;;;5.80;99.90;;;;;;5115253;28;20233;-80
2023/01/23 10:45:18;;;;;;;18.77;13.40;;;5.90;99.90;;;;;;5108419;28;20316;-83
2023/01/23 10:47:48;;;;;;;15.07;11.32;;;6.00;99.90;;;;;;5106238;28;20205;-82
2023/01/23 10:50:16;;;;;;;17.75;11.90;;;6.10;99.90;;;;;;5116109;28;20195;-81
2023/01/23 10:52:45;;;;;;;14.80;11.60;;;6.20;99.90;;;;;;5113172;28;20207;-83
2023/01/23 10:55:31;;;;;;;19.58;13.23;;;6.30;99.90;;;;;;5118226;28;20235;-82
2023/01/23 10:58:01;;;;;;;18.58;12.65;;;6.30;99.90;;;;;;5124765;28;20197;-84
2023/01/23 11:00:35;;;;;;;17.38;12.80;;;6.40;99.90;;;;;;5111188;28;20228;-81
2023/01/23 11:03:24;;;;;;;18.58;12.40;;;6.30;99.90;;;;;;5115122;28;20206;-82
2023/01/23 11:05:54;;;;;;;15.73;11.98;;;6.40;99.90;;;;;;5104834;28;20216;-81
2023/01/23 11:08:26;;;;;;;15.75;11.60;;;6.40;99.90;;;;;;5115917;28;20195;-83
2023/01/23 11:10:54;;;;;;;19.45;12.38;;;6.50;99.90;;;;;;5107635;28;20284;-82
2023/01/23 11:13:29;;;;;;;22.65;13.95;;;6.30;99.90;;;;;;5113342;28;20624;-80
2023/01/23 11:15:57;;;;;;;18.70;12.35;;;6.50;99.90;;;;;;5126553;28;20252;-82
2023/01/23 11:18:33;;;;;;;17.38;11.07;;;6.50;99.90;;;;;;5126338;28;20193;-81
2023/01/23 11:21:01;;;;;;;23.27;12.30;;;6.60;99.90;;;;;;5110246;27;20230;-81
2023/01/23 11:23:30;;;;;;;18.05;12.15;;;6.60;99.90;;;;;;5118138;27;20212;-81
2023/01/23 11:25:57;;;;;;;22.00;11.60;;;6.70;99.90;;;;;;5112762;28;20252;-82
2023/01/23 11:28:29;;;;;;;15.88;11.23;;;6.80;99.90;;;;;;5117181;27;20596;-81
2023/01/23 11:31:01;;;;;;;22.85;12.10;;;6.80;99.90;;;;;;5107494;27;20300;-81
2023/01/23 11:33:41;;;;;;;17.83;12.10;;;6.70;99.90;;;;;;5118333;27;20643;-83
2023/01/23 11:36:24;;;;;;;18.60;12.43;;;6.80;99.90;;;;;;5111182;27;20228;-81
2023/01/23 11:38:55;;;;;;;16.70;10.55;;;6.90;99.90;;;;;;5108778;28;20208;-82
2023/01/23 11:41:28;;;;;;;16.55;12.63;;;6.90;99.90;;;;;;5097633;28;20210;-82
2023/01/23 11:43:56;;;;;;;17.35;12.63;;;6.90;99.90;;;;;;5101215;28;20196;-83
2023/01/23 11:46:52;;;;;;;20.95;13.35;;;6.90;99.90;;;;;;5103531;28;20255;-81
2023/01/23 11:49:38;;;;;;;18.25;12.88;;;6.90;99.90;;;;;;5112087;28;20544;-82
2023/01/23 11:52:24;;;;;;;24.30;13.77;;;6.80;99.90;;;;;;5109026;27;20223;-82
2023/01/23 11:55:08;;;;;;;20.92;13.52;;;6.80;99.90;;;;;;5107476;27;20267;-83
2023/01/23 11:57:46;;;;;;;22.05;13.90;;;6.80;99.90;;;;;;5114361;27;20376;-84
2023/01/23 12:00:29;;;;;;;17.02;12.48;;;6.90;99.90;;;;;;5120325;27;20224;-80
2023/01/23 12:03:23;;;;;;;17.25;11.68;;;6.80;99.90;;;;;;5110366;27;20662;-81
2023/01/23 12:06:07;;;;;;;17.77;11.27;;;6.90;99.90;;;;;;5098708;28;20217;-83
2023/01/23 12:08:41;;;;;;;18.10;12.65;;;6.90;99.90;;;;;;5107781;27;20585;-84
2023/01/23 12:11:15;;;;;;;19.23;12.85;;;6.90;99.90;;;;;;5111984;28;20208;-82
2023/01/23 12:13:59;;;;;;;14.90;11.90;;;6.80;99.90;;;;;;5103187;27;20270;-83
2023/01/23 12:16:38;;;;;;;28.55;14.43;;;6.90;99.90;;;;;;5107751;28;20252;-82
2023/01/23 12:19:22;;;;;;;21.42;14.13;;;6.80;99.90;;;;;;5124906;27;20229;-81
2023/01/23 12:22:00;;;;;;;20.85;13.18;;;6.70;99.90;;;;;;5121774;28;20232;-81
2023/01/23 12:24:44;;;;;;;25.92;14.15;;;6.60;99.90;;;;;;5112202;28;20209;-82
2023/01/23 12:27:21;;;;;;;19.85;13.30;;;6.70;99.90;;;;;;5106471;28;20216;-81
2023/01/23 12:30:06;;;;;;;23.88;14.68;;;6.80;99.90;;;;;;5112436;28;20217;-82
2023/01/23 12:32:50;;;;;;;25.17;15.70;;;6.80;99.90;;;;;;5105709;28;20292;-84
2023/01/23 12:35:33;;;;;;;20.55;14.30;;;6.70;99.90;;;;;;5110694;28;20232;-83
2023/01/23 12:38:30;;;;;;;25.45;13.63;;;6.70;99.90;;;;;;5116775;28;20228;-83
2023/01/23 12:41:09;;;;;;;21.60;13.88;;;6.80;99.90;;;;;;5114367;27;20203;-80
2023/01/23 12:43:42;;;;;;;25.45;13.95;;;6.70;99.90;;;;;;5104076;28;20679;-84
2023/01/23 12:46:13;;;;;;;21.17;14.60;;;6.60;99.90;;;;;;5106312;28;20289;-81
2023/01/23 12:48:45;;;;;;;24.90;14.60;;;6.70;99.90;;;;;;5119905;27;20211;-81
2023/01/23 12:51:18;;;;;;;24.70;17.02;;;6.60;99.90;;;;;;5116617;27;20200;-82
2023/01/23 12:53:51;;;;;;;25.33;15.35;;;6.60;99.90;;;;;;5121702;27;20238;-82
2023/01/23 12:56:23;;;;;;;19.42;14.45;;;6.60;99.90;;;;;;5105183;28;20245;-81
2023/01/23 12:58:58;;;;;;;23.27;15.70;;;6.60;99.90;;;;;;5102690;28;20197;-84
2023/01/23 13:01:39;;;;;;;21.90;14.23;;;6.50;99.90;;;;;;5109951;27;20232;-81
2023/01/23 13:04:20;;;;;;;26.00;16.38;;;6.60;99.90;;;;;;5109862;28;20228;-82
2023/01/23 13:07:00;;;;;;;23.02;15.00;;;6.60;99.90;;;;;;5118941;27;20205;-82
2023/01/23 13:09:36;;;;;;;18.70;14.27;;;6.70;99.90;;;;;;5111780;28;20201;-83
2023/01/23 13:12:17;;;;;;;21.55;13.75;;;6.80;99.90;;;;;;5108332;27;20252;-82